Time;durP1;ratioP1;P1;durP2;ratioP2;P2;SDS_P1;SDS_P2;PMS_P1;PMS_P2;Temp;Humidity;BMP_temperature;BMP_pressure;BME280_temperature;BME280_humidity;BME280_pressure;Samples;Min_cycle;Max_cycle;Signal;HPM_P1;HPM_P2
2023/08/28 00:00:03;;;;;;;15.60;5.70;;;;;;;13.34;100.00;101034.06;5075088;28;20040;-72
2023/08/28 00:02:28;;;;;;;12.35;5.05;;;;;;;13.35;100.00;101014.22;5062902;28;20136;-71
2023/08/28 00:04:54;;;;;;;15.30;5.72;;;;;;;13.34;100.00;101024.16;5074352;28;20103;-71
2023/08/28 00:07:19;;;;;;;15.80;6.28;;;;;;;13.31;100.00;101018.13;5073877;28;20063;-71
2023/08/28 00:09:44;;;;;;;16.80;5.63;;;;;;;13.31;100.00;101016.28;5080062;28;20021;-71
2023/08/28 00:12:10;;;;;;;14.15;5.32;;;;;;;13.29;100.00;101024.53;5080879;28;20461;-72
2023/08/28 00:14:35;;;;;;;14.10;4.90;;;;;;;13.26;100.00;101016.66;5071183;28;20395;-71
2023/08/28 00:17:00;;;;;;;14.13;4.90;;;;;;;13.25;100.00;101023.06;5084384;28;20387;-72
2023/08/28 00:19:26;;;;;;;13.77;5.18;;;;;;;13.24;100.00;101017.78;5075352;28;20471;-72
2023/08/28 00:21:52;;;;;;;12.65;4.93;;;;;;;13.20;100.00;101010.91;5082839;28;20554;-71
2023/08/28 00:24:17;;;;;;;15.10;4.95;;;;;;;13.15;100.00;101015.81;5074683;28;20109;-72
2023/08/28 00:26:42;;;;;;;15.75;5.43;;;;;;;13.13;100.00;101005.16;5082646;28;20103;-71
2023/08/28 00:29:08;;;;;;;13.73;5.53;;;;;;;13.11;100.00;101007.13;5067746;28;20123;-71
2023/08/28 00:31:33;;;;;;;11.98;5.15;;;;;;;13.06;100.00;101004.81;5071255;28;20032;-71
2023/08/28 00:33:59;;;;;;;14.20;5.53;;;;;;;13.05;100.00;101008.47;5055233;28;20033;-72
2023/08/28 00:36:25;;;;;;;15.77;5.43;;;;;;;13.04;100.00;101006.75;5077111;28;20114;-71
2023/08/28 00:38:50;;;;;;;13.82;5.38;;;;;;;13.05;100.00;101010.31;5075518;28;20112;-71
2023/08/28 00:41:15;;;;;;;16.05;6.05;;;;;;;13.01;100.00;101001.59;5070775;28;20052;-71
2023/08/28 00:43:41;;;;;;;14.60;5.72;;;;;;;12.97;100.00;100993.91;5075042;28;20032;-72
2023/08/28 00:46:09;;;;;;;13.45;5.22;;;;;;;12.94;100.00;101001.28;5069504;28;20031;-74
2023/08/28 00:48:35;;;;;;;14.18;5.30;;;;;;;12.86;100.00;100998.31;5078444;28;20021;-74
2023/08/28 00:51:00;;;;;;;16.15;6.25;;;;;;;12.81;100.00;101003.25;5079385;28;20380;-74
2023/08/28 00:53:26;;;;;;;18.08;6.03;;;;;;;12.75;100.00;100998.31;5069505;28;20021;-74
2023/08/28 00:55:51;;;;;;;14.30;5.95;;;;;;;12.71;100.00;100994.19;5073006;28;20032;-74
2023/08/28 00:58:55;;;;;;;15.45;5.68;;;;;;;12.61;100.00;101004.81;5082053;28;20027;-74
2023/08/28 01:01:29;;;;;;;15.77;5.80;;;;;;;12.53;100.00;101005.44;5053098;28;20047;-74
2023/08/28 01:03:57;;;;;;;13.55;5.55;;;;;;;12.51;100.00;100996.59;5067447;28;20033;-74
2023/08/28 01:07:14;;;;;;;13.27;4.93;;;;;;;12.52;100.00;100998.31;5067383;28;20127;-74
2023/08/28 01:09:49;;;;;;;13.98;5.60;;;;;;;12.53;100.00;101000.06;5041512;28;20040;-74
2023/08/28 01:12:21;;;;;;;16.20;6.10;;;;;;;12.49;100.00;100989.59;5064607;28;20064;-74
2023/08/28 01:15:07;;;;;;;18.73;6.30;;;;;;;12.50;100.00;101002.13;5068601;28;20499;-74
2023/08/28 01:17:34;;;;;;;15.45;5.72;;;;;;;12.53;100.00;101008.13;5061624;28;20032;-74
2023/08/28 01:20:00;;;;;;;18.10;6.70;;;;;;;12.50;100.00;101002.97;5068828;28;20083;-74
2023/08/28 01:22:49;;;;;;;15.50;6.15;;;;;;;12.52;100.00;101001.03;5066096;28;20064;-74
2023/08/28 01:25:16;;;;;;;16.02;6.35;;;;;;;12.58;100.00;101005.06;5048623;28;20088;-74
2023/08/28 01:27:41;;;;;;;15.35;6.00;;;;;;;12.61;100.00;100990.47;5064756;28;20044;-74
2023/08/28 01:30:11;;;;;;;18.17;6.93;;;;;;;12.59;100.00;100991.47;5060901;28;20063;-74
2023/08/28 01:32:37;;;;;;;;;;;;;;;12.59;100.00;100991.47;5040599;28;20128;-74
2023/08/28 01:35:07;;;;;;;17.67;6.45;;;;;;;12.57;100.00;100990.72;5055632;28;19986;-74
2023/08/28 01:37:53;;;;;;;16.13;6.72;;;;;;;12.53;100.00;100989.28;5074725;28;20048;-74
2023/08/28 01:40:25;;;;;;;15.95;6.80;;;;;;;12.51;100.00;100984.97;5080850;28;20020;-74
2023/08/28 01:42:54;;;;;;;18.25;7.32;;;;;;;12.47;100.00;100978.94;5068636;28;20070;-74
2023/08/28 01:45:20;;;;;;;19.45;7.32;;;;;;;12.44;100.00;100978.34;5070625;28;20053;-74
2023/08/28 01:47:45;;;;;;;18.17;7.03;;;;;;;12.40;100.00;100975.91;5082445;28;20131;-74
2023/08/28 01:50:11;;;;;;;20.48;7.25;;;;;;;12.39;100.00;100968.78;5085439;28;20032;-74
2023/08/28 01:52:36;;;;;;;17.00;7.00;;;;;;;12.40;100.00;100972.31;5086482;28;20016;-73
2023/08/28 01:55:02;;;;;;;14.20;6.13;;;;;;;12.34;100.00;100964.72;5081948;28;20085;-74
2023/08/28 01:57:27;;;;;;;19.48;7.05;;;;;;;12.28;100.00;100978.69;5059756;28;20021;-71
2023/08/28 01:59:53;;;;;;;16.33;6.20;;;;;;;12.26;100.00;100972.56;5063516;28;20437;-72
2023/08/28 02:02:18;;;;;;;18.65;7.55;;;;;;;12.27;100.00;100964.38;5070928;28;20046;-71
2023/08/28 02:04:43;;;;;;;17.92;6.90;;;;;;;12.24;100.00;100965.47;5067788;28;20103;-71
2023/08/28 02:07:08;;;;;;;21.48;7.25;;;;;;;12.19;100.00;100964.94;5073718;28;20036;-71
2023/08/28 02:09:34;;;;;;;17.27;6.32;;;;;;;12.19;100.00;100959.56;5069856;28;20404;-71
2023/08/28 02:11:59;;;;;;;16.48;6.00;;;;;;;12.17;100.00;100958.00;5075249;28;20114;-72
2023/08/28 02:14:24;;;;;;;16.80;6.72;;;;;;;12.20;100.00;100958.59;5071423;28;20461;-71
2023/08/28 02:16:50;;;;;;;19.33;7.57;;;;;;;12.21;100.00;100948.66;5067661;28;20535;-72
2023/08/28 02:19:15;;;;;;;17.17;7.47;;;;;;;12.16;100.00;100949.03;5065482;28;20025;-71
2023/08/28 02:21:40;;;;;;;17.98;7.53;;;;;;;12.13;100.00;100946.59;5075980;28;20036;-71
2023/08/28 02:24:06;;;;;;;17.55;7.00;;;;;;;12.12;100.00;100954.78;5072996;28;20058;-72
2023/08/28 02:26:32;;;;;;;16.52;6.45;;;;;;;12.12;100.00;100958.31;5067026;28;20062;-71
2023/08/28 02:28:57;;;;;;;19.63;7.85;;;;;;;12.14;100.00;100961.78;5081623;28;20034;-71
2023/08/28 02:31:22;;;;;;;18.25;6.55;;;;;;;12.17;100.00;100963.38;5074662;28;20048;-71
2023/08/28 02:33:48;;;;;;;17.75;7.38;;;;;;;12.15;100.00;100963.50;5073941;28;20020;-71
2023/08/28 02:36:13;;;;;;;17.50;7.68;;;;;;;12.23;100.00;100962.88;5071741;28;20519;-73
2023/08/28 02:38:38;;;;;;;19.33;7.97;;;;;;;12.23;100.00;100960.19;5074294;28;20036;-72
2023/08/28 02:41:06;;;;;;;21.13;7.30;;;;;;;12.23;100.00;100961.03;5077258;28;20067;-70
2023/08/28 02:43:32;;;;;;;17.52;7.30;;;;;;;12.23;100.00;100958.34;5085276;28;20023;-71
2023/08/28 02:45:57;;;;;;;17.58;7.18;;;;;;;12.24;100.00;100959.22;5071585;28;20035;-71
2023/08/28 02:48:23;;;;;;;20.70;7.35;;;;;;;12.22;100.00;100961.16;5082355;28;20024;-71
2023/08/28 02:50:49;;;;;;;18.50;6.78;;;;;;;12.21;100.00;100965.72;5082098;28;20025;-71
2023/08/28 02:53:15;;;;;;;17.80;7.43;;;;;;;12.21;100.00;100971.09;5080473;28;20028;-72
2023/08/28 02:55:41;;;;;;;18.02;6.90;;;;;;;12.21;100.00;100971.09;5079969;28;20039;-71
2023/08/28 02:58:07;;;;;;;18.85;7.43;;;;;;;12.16;100.00;100969.75;5070996;28;20020;-71
2023/08/28 03:00:34;;;;;;;18.95;6.97;;;;;;;12.13;100.00;100976.22;5064814;28;20348;-71
2023/08/28 03:03:00;;;;;;;18.83;8.02;;;;;;;12.12;100.00;100973.66;5072139;28;20337;-71
2023/08/28 03:05:26;;;;;;;16.98;7.05;;;;;;;12.13;100.00;100972.69;5073035;28;20050;-71
2023/08/28 03:07:52;;;;;;;18.00;6.72;;;;;;;12.15;100.00;100976.09;5078992;28;20048;-71
2023/08/28 03:10:17;;;;;;;17.02;6.68;;;;;;;12.09;100.00;100981.97;5081479;28;20032;-72
2023/08/28 03:12:42;;;;;;;18.40;7.82;;;;;;;12.07;100.00;100982.09;5073823;28;20020;-72
2023/08/28 03:15:08;;;;;;;17.88;7.32;;;;;;;12.10;100.00;100983.69;5077396;28;20024;-71
2023/08/28 03:17:33;;;;;;;16.50;7.35;;;;;;;12.09;100.00;100982.81;5082128;28;20075;-71
2023/08/28 03:19:59;;;;;;;20.35;8.07;;;;;;;12.12;100.00;100979.03;5065512;28;20056;-71
2023/08/28 03:22:24;;;;;;;17.58;7.22;;;;;;;12.10;100.00;100983.69;5064146;28;20024;-71
2023/08/28 03:24:52;;;;;;;20.40;7.80;;;;;;;12.09;100.00;100982.81;5067993;28;20460;-71
2023/08/28 03:27:17;;;;;;;18.55;7.97;;;;;;;12.09;100.00;100977.44;5076172;28;20046;-71
2023/08/28 03:29:43;;;;;;;20.77;7.78;;;;;;;12.10;100.00;100994.47;5063368;28;20338;-72
2023/08/28 03:32:08;;;;;;;22.35;8.77;;;;;;;12.12;100.00;100989.81;5067978;28;20020;-71
2023/08/28 03:34:33;;;;;;;18.70;7.88;;;;;;;12.16;100.00;100989.44;5061682;28;20119;-73
2023/08/28 03:36:59;;;;;;;21.50;8.40;;;;;;;12.24;100.00;100991.56;5066031;28;20156;-71
2023/08/28 03:39:24;;;;;;;19.92;8.63;;;;;;;12.28;100.00;100997.56;5065809;28;20064;-71
2023/08/28 03:41:49;;;;;;;18.70;8.52;;;;;;;12.30;100.00;100993.78;5075838;28;20047;-71
2023/08/28 03:44:14;;;;;;;19.65;8.68;;;;;;;12.34;100.00;101007.84;5070780;28;20392;-71
2023/08/28 03:46:40;;;;;;;19.63;7.63;;;;;;;12.37;100.00;101010.31;5079363;28;20024;-72
2023/08/28 03:49:08;;;;;;;20.27;8.80;;;;;;;12.35;100.00;101005.03;5076986;28;20070;-71
2023/08/28 03:51:34;;;;;;;19.70;8.68;;;;;;;12.36;100.00;101012.16;5077555;28;20055;-71
2023/08/28 03:54:01;;;;;;;18.27;7.93;;;;;;;12.37;100.00;101002.22;5064451;28;20029;-71
2023/08/28 03:56:26;;;;;;;19.48;8.20;;;;;;;12.37;100.00;101011.19;5071181;28;20027;-71
2023/08/28 03:58:52;;;;;;;18.33;8.10;;;;;;;12.39;100.00;101017.28;5074356;28;20395;-71
2023/08/28 04:01:18;;;;;;;21.00;9.20;;;;;;;12.44;100.00;101027.72;5065890;28;20027;-71
2023/08/28 04:03:43;;;;;;;18.80;8.60;;;;;;;12.47;100.00;101029.31;5067015;28;20438;-71
2023/08/28 04:06:08;;;;;;;20.25;9.38;;;;;;;12.52;100.00;101032.53;5080829;28;20131;-71
2023/08/28 04:08:34;;;;;;;21.20;9.48;;;;;;;12.53;100.00;101021.63;5072168;28;20024;-71
2023/08/28 04:11:00;;;;;;;18.88;9.07;;;;;;;12.58;100.00;101032.88;5075375;28;20032;-72
2023/08/28 04:13:25;;;;;;;20.77;10.25;;;;;;;12.62;100.00;101029.94;5072690;28;20044;-72
2023/08/28 04:15:51;;;;;;;22.67;9.48;;;;;;;12.68;100.00;101032.16;5063716;28;20028;-74
2023/08/28 04:18:19;;;;;;;20.83;9.52;;;;;;;12.71;100.00;101042.72;5083748;28;20071;-74
2023/08/28 04:20:44;;;;;;;24.58;10.05;;;;;;;12.74;100.00;101031.69;5069963;28;20436;-74
2023/08/28 04:23:10;;;;;;;23.02;10.77;;;;;;;12.76;100.00;101027.00;5077934;28;20113;-74
2023/08/28 04:25:35;;;;;;;23.05;10.52;;;;;;;12.77;100.00;101026.88;5089890;28;20032;-74
2023/08/28 04:28:00;;;;;;;20.95;9.75;;;;;;;12.81;100.00;101043.69;5079530;28;20127;-74
2023/08/28 04:30:26;;;;;;;22.77;9.70;;;;;;;12.83;100.00;101044.41;5085541;28;20147;-74
2023/08/28 04:32:54;;;;;;;19.80;9.82;;;;;;;12.83;100.00;101047.13;5091691;28;20036;-73
2023/08/28 04:35:19;;;;;;;21.08;9.98;;;;;;;12.83;100.00;101035.47;5076142;28;20192;-74
2023/08/28 04:37:44;;;;;;;20.05;9.25;;;;;;;12.85;100.00;101042.44;5087532;28;20146;-74
2023/08/28 04:40:10;;;;;;;23.20;10.77;;;;;;;12.86;100.00;101046.03;5087192;28;20483;-74
2023/08/28 04:42:35;;;;;;;23.30;10.15;;;;;;;12.88;100.00;101039.50;5073608;28;20031;-74
2023/08/28 04:45:01;;;;;;;21.88;10.90;;;;;;;12.89;100.00;101043.06;5085643;28;20078;-73
2023/08/28 04:47:26;;;;;;;23.85;10.48;;;;;;;12.92;100.00;101045.53;5078611;28;20503;-74
2023/08/28 04:49:51;;;;;;;21.23;9.77;;;;;;;12.96;100.00;101046.13;5089206;28;20020;-74
2023/08/28 04:52:17;;;;;;;22.70;10.82;;;;;;;12.94;100.00;101038.16;5084335;28;20139;-74
2023/08/28 04:54:42;;;;;;;22.52;10.38;;;;;;;12.99;100.00;101024.28;5079050;28;20029;-74
2023/08/28 04:57:07;;;;;;;23.25;10.00;;;;;;;13.00;100.00;101020.63;5079092;28;20028;-74
2023/08/28 04:59:32;;;;;;;21.08;9.75;;;;;;;13.02;100.00;101019.53;5083527;28;20024;-74
2023/08/28 05:01:58;;;;;;;20.77;9.32;;;;;;;13.03;100.00;101025.75;5066532;28;20102;-74
2023/08/28 05:04:23;;;;;;;20.70;10.98;;;;;;;13.03;100.00;101028.47;5080130;28;20021;-74
2023/08/28 05:06:49;;;;;;;20.73;9.50;;;;;;;13.05;100.00;101019.28;5074872;28;20094;-73
2023/08/28 05:09:14;;;;;;;22.02;10.98;;;;;;;13.08;100.00;101010.06;5078055;28;20036;-74
2023/08/28 05:11:40;;;;;;;21.67;10.00;;;;;;;13.10;100.00;101013.50;5069184;28;20059;-74
2023/08/28 05:14:05;;;;;;;21.02;10.38;;;;;;;13.08;100.00;101008.22;5078027;28;20055;-74
2023/08/28 05:16:32;;;;;;;19.35;9.27;;;;;;;13.09;100.00;101026.13;5075547;28;20024;-74
2023/08/28 05:18:57;;;;;;;21.45;9.95;;;;;;;13.12;100.00;101014.25;5084196;28;20092;-74
2023/08/28 05:21:22;;;;;;;20.45;9.90;;;;;;;13.15;100.00;101015.81;5072117;28;20067;-74
2023/08/28 05:23:48;;;;;;;20.00;9.93;;;;;;;13.17;100.00;101012.00;5072557;28;20468;-74
2023/08/28 05:26:13;;;;;;;19.52;9.00;;;;;;;13.21;100.00;101010.78;5078377;28;20085;-68
2023/08/28 05:28:38;;;;;;;21.60;11.00;;;;;;;13.24;100.00;101013.22;5064128;28;20020;-70
2023/08/28 05:31:05;;;;;;;25.48;10.57;;;;;;;13.26;100.00;101016.66;5065500;28;20076;-73
2023/08/28 05:33:33;;;;;;;21.10;10.35;;;;;;;13.28;100.00;101012.00;5075816;28;20495;-70
2023/08/28 05:35:58;;;;;;;20.63;10.82;;;;;;;13.29;100.00;101012.84;5077735;28;20536;-70
2023/08/28 05:38:24;;;;;;;19.52;10.05;;;;;;;13.32;100.00;101009.88;5074322;28;20027;-71
2023/08/28 05:40:49;;;;;;;21.02;10.35;;;;;;;13.34;100.00;101004.34;5062124;28;20536;-70
2023/08/28 05:43:14;;;;;;;21.30;10.90;;;;;;;13.32;100.00;101006.34;5059885;28;20032;-72
2023/08/28 05:45:40;;;;;;;20.67;10.30;;;;;;;13.35;100.00;100998.88;5073937;28;20447;-71
2023/08/28 05:48:08;;;;;;;21.33;10.57;;;;;;;13.35;100.00;101004.25;5074756;28;20027;-71
2023/08/28 05:50:33;;;;;;;20.50;10.75;;;;;;;13.36;100.00;101005.16;5068016;28;20025;-72
2023/08/28 05:52:59;;;;;;;26.20;11.88;;;;;;;13.38;100.00;101008.56;5071833;28;20109;-71
2023/08/28 05:55:24;;;;;;;21.02;11.15;;;;;;;13.37;100.00;101017.66;5068154;28;20024;-70
2023/08/28 05:57:49;;;;;;;20.50;10.27;;;;;;;13.40;100.00;101023.66;5078014;28;20488;-70
2023/08/28 06:00:15;;;;;;;23.13;11.85;;;;;;;13.43;100.00;101023.41;5077026;28;20048;-71
2023/08/28 06:02:41;;;;;;;25.50;11.50;;;;;;;13.42;100.00;101021.69;5079132;28;20051;-71
2023/08/28 06:05:07;;;;;;;23.02;11.80;;;;;;;13.44;100.00;101021.53;5076773;28;20024;-70
2023/08/28 06:07:33;;;;;;;23.67;11.52;;;;;;;13.43;100.00;101017.16;5084978;28;20114;-71
2023/08/28 06:09:58;;;;;;;21.40;10.63;;;;;;;13.44;100.00;101013.44;5079987;28;20054;-71
2023/08/28 06:12:24;;;;;;;20.88;10.60;;;;;;;13.48;100.00;101019.47;5076426;28;20031;-71
2023/08/28 06:14:50;;;;;;;21.60;10.45;;;;;;;13.48;100.00;101014.06;5075092;28;20040;-71
2023/08/28 06:17:15;;;;;;;20.83;10.50;;;;;;;13.51;100.00;101011.09;5068334;28;20909;-71
2023/08/28 06:19:40;;;;;;;21.73;11.05;;;;;;;13.54;100.00;101009.00;5077652;28;20023;-71
2023/08/28 06:22:06;;;;;;;21.98;11.25;;;;;;;13.56;100.00;101008.91;5083223;28;20396;-71
2023/08/28 06:24:31;;;;;;;22.05;10.82;;;;;;;13.60;100.00;101013.91;5077242;28;20476;-70
2023/08/28 06:26:57;;;;;;;20.45;11.05;;;;;;;13.66;100.00;101012.53;5075108;28;20111;-70
2023/08/28 06:29:22;;;;;;;23.27;12.93;;;;;;;13.72;100.00;101012.03;5073637;28;20442;-71
2023/08/28 06:31:48;;;;;;;23.73;10.82;;;;;;;13.76;100.00;101018.88;5064763;28;20029;-70
2023/08/28 06:34:14;;;;;;;20.35;11.07;;;;;;;13.83;100.00;101016.50;5069241;28;20096;-71
2023/08/28 06:36:40;;;;;;;23.58;12.20;;;;;;;13.90;100.00;101027.66;5079347;28;20111;-76
2023/08/28 06:39:09;;;;;;;22.08;11.95;;;;;;;13.93;100.00;101020.13;5072710;28;20112;-75
2023/08/28 06:41:34;;;;;;;22.48;11.43;;;;;;;14.02;100.00;101020.34;5075932;28;20094;-75
2023/08/28 06:44:04;;;;;;;22.70;12.60;;;;;;;14.08;100.00;101027.94;5069492;28;20039;-76
2023/08/28 06:46:30;;;;;;;22.65;12.07;;;;;;;14.14;100.00;101022.00;5080824;28;20063;-75
2023/08/28 06:48:55;;;;;;;22.20;11.55;;;;;;;14.23;100.00;101020.34;5069797;28;20024;-76
2023/08/28 06:51:21;;;;;;;24.95;12.07;;;;;;;14.25;100.00;101030.06;5072214;28;20432;-76
2023/08/28 06:53:48;;;;;;;21.88;11.68;;;;;;;14.29;100.00;101036.91;5071410;28;20020;-76
2023/08/28 06:56:13;;;;;;;22.17;10.88;;;;;;;14.31;100.00;101032.22;5080479;28;20034;-76
2023/08/28 06:58:39;;;;;;;23.27;12.00;;;;;;;14.33;100.00;101038.38;5074435;28;20475;-75
2023/08/28 07:01:04;;;;;;;23.23;11.93;;;;;;;14.35;100.00;101038.22;5067193;28;20085;-76
2023/08/28 07:03:30;;;;;;;23.38;12.40;;;;;;;14.37;100.00;101048.91;5077954;28;20036;-76
2023/08/28 07:05:55;;;;;;;23.52;11.68;;;;;;;14.39;100.00;101049.63;5071663;28;20045;-76
2023/08/28 07:08:21;;;;;;;21.88;12.00;;;;;;;14.41;100.00;101053.06;5081553;28;20504;-77
2023/08/28 07:10:46;;;;;;;21.73;10.82;;;;;;;14.41;100.00;101058.47;5066760;28;20033;-76
2023/08/28 07:13:12;;;;;;;22.08;11.23;;;;;;;14.43;100.00;101064.59;5063151;28;20478;-76
2023/08/28 07:15:40;;;;;;;26.58;11.40;;;;;;;14.43;100.00;101061.91;5066201;28;20059;-76
2023/08/28 07:18:05;;;;;;;23.33;12.90;;;;;;;14.45;100.00;101068.03;5079671;28;20078;-76
2023/08/28 07:20:31;;;;;;;22.00;10.93;;;;;;;14.49;100.00;101067.66;5068500;28;20033;-76
2023/08/28 07:22:57;;;;;;;23.95;11.07;;;;;;;14.55;100.00;101063.53;5064217;28;20516;-76
2023/08/28 07:25:22;;;;;;;22.02;11.80;;;;;;;14.63;100.00;101060.22;5063423;28;20894;-76
2023/08/28 07:27:49;;;;;;;22.15;10.73;;;;;;;14.71;100.00;101054.97;5077831;28;20264;-76
2023/08/28 07:30:14;;;;;;;24.08;11.30;;;;;;;14.78;100.00;101047.19;5077520;28;20112;-76
2023/08/28 07:32:39;;;;;;;21.13;10.93;;;;;;;14.86;100.00;101050.03;5079123;28;20061;-76
2023/08/28 07:35:05;;;;;;;20.60;10.15;;;;;;;14.93;100.00;101051.22;5073143;28;20029;-76
2023/08/28 07:37:33;;;;;;;24.60;11.02;;;;;;;15.00;100.00;101041.56;5069857;28;20492;-76
2023/08/28 07:39:59;;;;;;;23.70;11.23;;;;;;;15.10;100.00;101046.19;5076264;28;20022;-76
2023/08/28 07:42:25;;;;;;;24.38;10.15;;;;;;;15.12;100.00;101050.44;5076980;28;20056;-76
2023/08/28 07:44:50;;;;;;;21.77;10.73;;;;;;;15.22;100.00;101050.47;5079466;28;20487;-76
2023/08/28 07:47:16;;;;;;;21.50;10.77;;;;;;;15.28;100.00;101051.78;5078958;28;20139;-74
2023/08/28 07:49:43;;;;;;;20.52;10.75;;;;;;;15.34;100.00;101043.97;5078555;28;20016;-74
2023/08/28 07:52:09;;;;;;;22.50;10.95;;;;;;;15.41;100.00;101043.41;5059223;28;20036;-74
2023/08/28 07:54:34;;;;;;;20.73;10.70;;;;;;;15.46;100.00;101051.97;5076487;28;20095;-73
2023/08/28 07:57:00;;;;;;;22.25;10.07;;;;;;;15.51;100.00;101052.41;5079013;28;20483;-74
2023/08/28 07:59:25;;;;;;;20.70;9.38;;;;;;;15.53;100.00;101047.69;5076420;28;20028;-74
2023/08/28 08:01:51;;;;;;;21.63;10.70;;;;;;;15.59;100.00;101039.00;5079178;28;20036;-74
2023/08/28 08:04:16;;;;;;;23.80;12.07;;;;;;;15.64;100.00;101044.03;5064243;28;20036;-74
2023/08/28 08:06:42;;;;;;;25.45;11.88;;;;;;;15.68;100.00;101042.72;5079702;28;20044;-74
2023/08/28 08:09:07;;;;;;;23.42;11.80;;;;;;;15.73;100.00;101048.59;5065307;28;20035;-73
2023/08/28 08:11:33;;;;;;;22.48;10.52;;;;;;;15.74;100.00;101050.31;5073979;28;20023;-73
2023/08/28 08:13:58;;;;;;;21.70;10.80;;;;;;;15.77;100.00;101050.03;5071796;28;20033;-75
2023/08/28 08:16:24;;;;;;;24.15;9.25;;;;;;;15.78;100.00;101053.56;5069684;28;20031;-70
2023/08/28 08:18:49;;;;;;;18.67;7.75;;;;;;;15.79;100.00;101047.19;5067168;28;20025;-70
2023/08/28 08:21:15;;;;;;;19.20;5.93;;;;;;;15.79;100.00;101041.78;5063465;28;20025;-70
2023/08/28 08:23:41;;;;;;;17.80;6.63;;;;;;;15.81;100.00;101042.47;5064306;28;20110;-70
2023/08/28 08:26:09;;;;;;;23.70;8.75;;;;;;;15.83;100.00;101054.06;5063705;28;20432;-70
2023/08/28 08:28:35;;;;;;;20.67;9.18;;;;;;;15.88;100.00;101051.75;5056709;28;20041;-70
2023/08/28 08:31:00;;;;;;;22.38;10.02;;;;;;;15.90;100.00;101052.47;5057552;28;20020;-67
2023/08/28 08:33:26;;;;;;;21.63;10.30;;;;;;;15.93;100.00;101054.03;5059399;28;20445;-70
2023/08/28 08:35:51;;;;;;;20.48;10.27;;;;;;;15.95;100.00;101052.91;5067284;28;20028;-69
2023/08/28 08:38:17;;;;;;;20.92;11.45;;;;;;;15.96;100.00;101061.88;5067294;28;20086;-70
2023/08/28 08:40:43;;;;;;;20.60;9.40;;;;;;;15.95;100.00;101063.75;5065990;28;20081;-70
2023/08/28 08:43:08;;;;;;;21.58;9.80;;;;;;;15.95;100.00;101066.47;5066800;28;20421;-71
2023/08/28 08:45:37;;;;;;;19.10;9.00;;;;;;;15.97;100.00;101067.16;5066685;28;20226;-70
2023/08/28 08:48:05;;;;;;;22.92;8.10;;;;;;;16.00;100.00;101069.59;5056105;28;20032;-74
2023/08/28 08:50:35;;;;;;;18.35;8.05;;;;;;;16.04;100.00;101056.63;5057460;28;20111;-73
2023/08/28 08:53:06;;;;;;;22.55;8.75;;;;;;;16.08;100.00;101067.03;5058532;28;20028;-73
2023/08/28 08:55:45;;;;;;;22.13;9.02;;;;;;;16.15;100.00;101069.16;5059451;28;20040;-72
2023/08/28 08:58:13;;;;;;;20.52;9.30;;;;;;;16.18;100.00;101064.31;5055972;28;20131;-76
2023/08/28 09:00:44;;;;;;;20.20;8.60;;;;;;;16.20;100.00;101065.00;5051977;28;20067;-76
2023/08/28 09:03:10;;;;;;;21.75;8.07;;;;;;;16.21;100.00;101065.88;5063381;28;20032;-77
2023/08/28 09:05:36;;;;;;;18.95;7.65;;;;;;;16.25;100.00;101064.56;5058060;28;20173;-77
2023/08/28 09:08:05;;;;;;;21.50;7.60;;;;;;;16.28;100.00;101067.00;5072966;28;20182;-76
2023/08/28 09:10:32;;;;;;;16.38;6.35;;;;;;;16.30;100.00;101062.31;5072684;28;20043;-76
2023/08/28 09:12:57;;;;;;;16.95;6.88;;;;;;;16.34;100.00;101065.56;5072044;28;20106;-76
2023/08/28 09:15:24;;;;;;;17.13;7.22;;;;;;;16.38;100.00;101061.56;5064278;28;20058;-76
2023/08/28 09:17:50;;;;;;;18.13;7.15;;;;;;;16.41;100.00;101043.16;5065362;28;20029;-76
2023/08/28 09:20:22;;;;;;;18.25;7.20;;;;;;;16.46;100.00;101049.97;5063350;28;20072;-76
2023/08/28 09:22:49;;;;;;;15.48;6.25;;;;;;;16.50;100.00;101048.69;5064578;28;20028;-76
2023/08/28 09:25:16;;;;;;;20.75;6.15;;;;;;;16.53;100.00;101049.28;5061818;28;20310;-76
2023/08/28 09:27:43;;;;;;;13.93;6.00;;;;;;;16.58;100.00;101055.09;5067744;28;20578;-76
2023/08/28 09:30:09;;;;;;;14.85;5.63;;;;;;;16.57;100.00;101052.53;5068628;28;20016;-76
2023/08/28 09:32:35;;;;;;;13.38;4.80;;;;;;;16.59;100.00;101051.38;5068533;28;20024;-76
2023/08/28 09:35:00;;;;;;;15.18;5.63;;;;;;;16.63;100.00;101049.22;5070255;28;20485;-76
2023/08/28 09:37:27;;;;;;;13.75;5.18;;;;;;;16.62;100.00;101050.25;5064177;28;20459;-76
2023/08/28 09:39:56;;;;;;;17.55;5.78;;;;;;;16.66;100.00;101062.53;5079140;28;20044;-76
2023/08/28 09:42:24;;;;;;;18.80;7.25;;;;;;;16.67;100.00;101064.22;5074151;28;20033;-76
2023/08/28 09:44:49;;;;;;;16.17;6.13;;;;;;;16.70;100.00;101061.19;5081789;28;20024;-77
2023/08/28 09:47:27;;;;;;;16.40;6.93;;;;;;;16.76;100.00;101057.03;5075039;28;20387;-76
2023/08/28 09:49:56;;;;;;;17.73;6.38;;;;;;;16.77;100.00;101059.63;5075267;28;20376;-76
2023/08/28 09:52:28;;;;;;;14.45;6.00;;;;;;;16.84;100.00;101064.44;5081842;28;20096;-76
2023/08/28 09:55:04;;;;;;;15.18;5.75;;;;;;;16.93;100.00;101071.75;5061833;28;20059;-76
2023/08/28 09:57:30;;;;;;;12.23;4.82;;;;;;;16.95;100.00;101067.00;5075197;28;20105;-76
2023/08/28 09:59:56;;;;;;;15.57;4.85;;;;;;;17.03;100.00;101059.00;5069195;28;20810;-76
2023/08/28 10:02:22;;;;;;;13.02;4.55;;;;;;;17.08;100.00;101064.81;5075149;28;20031;-76
2023/08/28 10:04:52;;;;;;;15.57;5.47;;;;;;;17.16;100.00;101061.38;5079938;28;20066;-76
2023/08/28 10:07:22;;;;;;;17.75;6.32;;;;;;;17.19;100.00;101063.78;5064785;28;20135;-74
2023/08/28 10:09:49;;;;;;;10.93;4.43;;;;;;;17.23;100.00;101059.75;5077559;28;20040;-73
2023/08/28 10:12:16;;;;;;;12.45;3.92;;;;;;;17.23;98.04;101072.47;5062154;28;20131;-74
2023/08/28 10:14:42;;;;;;;11.45;4.32;;;;;;;17.32;100.00;101063.44;5067983;28;20035;-74
2023/08/28 10:17:12;;;;;;;14.68;4.55;;;;;;;17.41;100.00;101058.91;5079351;28;20379;-76
2023/08/28 10:19:45;;;;;;;15.77;5.82;;;;;;;17.53;100.00;101049.56;5069634;28;20468;-76
2023/08/28 10:22:11;;;;;;;15.75;5.85;;;;;;;17.60;100.00;101045.22;5061712;28;20078;-76
2023/08/28 10:24:40;;;;;;;14.95;5.78;;;;;;;17.68;100.00;101047.16;5080334;28;20048;-76
2023/08/28 10:27:07;;;;;;;12.07;3.93;;;;;;;17.75;98.10;101050.13;5071413;28;20020;-75
2023/08/28 10:29:34;;;;;;;9.07;3.72;;;;;;;17.80;96.28;101054.09;5070598;28;20306;-75
2023/08/28 10:32:01;;;;;;;8.43;3.60;;;;;;;17.82;93.06;101052.06;5071040;28;20032;-74
2023/08/28 10:34:28;;;;;;;10.75;4.15;;;;;;;17.85;93.19;101055.47;5083166;28;20458;-74
2023/08/28 10:36:54;;;;;;;10.38;4.15;;;;;;;17.89;93.84;101065.03;5065604;28;20070;-74
2023/08/28 10:39:20;;;;;;;9.02;3.40;;;;;;;17.90;94.45;101061.34;5071057;28;20033;-74
2023/08/28 10:41:47;;;;;;;12.23;4.07;;;;;;;17.94;94.75;101065.47;5068316;28;20028;-73
2023/08/28 10:44:14;;;;;;;17.05;6.20;;;;;;;17.94;94.32;101062.75;5073230;28;20036;-75
2023/08/28 10:46:40;;;;;;;12.32;5.45;;;;;;;17.94;94.64;101062.75;5079140;28;20027;-76
2023/08/28 10:49:11;;;;;;;13.50;5.75;;;;;;;17.92;96.25;101059.31;5081062;28;20031;-70
2023/08/28 10:51:37;;;;;;;15.07;5.80;;;;;;;17.89;93.59;101062.31;5084500;28;20072;-72
2023/08/28 10:54:04;;;;;;;16.05;7.10;;;;;;;17.85;93.34;101058.19;5077111;28;20468;-71
2023/08/28 10:56:34;;;;;;;15.00;5.85;;;;;;;17.82;97.07;101059.38;5085055;28;20038;-71
2023/08/28 10:59:23;;;;;;;17.55;6.55;;;;;;;17.80;96.32;101059.53;5062395;28;20051;-71
2023/08/28 11:01:59;;;;;;;18.10;7.85;;;;;;;17.81;95.74;101052.22;5083691;28;20507;-71
2023/08/28 11:04:33;;;;;;;17.33;6.95;;;;;;;17.81;96.05;101044.91;5084598;28;20024;-71